Time;durP1;ratioP1;P1;durP2;ratioP2;P2;SDS_P1;SDS_P2;PMS_P1;PMS_P2;Temp;Humidity;BMP_temperature;BMP_pressure;BME280_temperature;BME280_humidity;BME280_pressure;Samples;Min_cycle;Max_cycle;Signal;HPM_P1;HPM_P2
2022/03/01 00:01:46;;;;;;;10.77;4.13;;;0.30;77.10;;;;;;4194914;28;20457;-78
2022/03/01 00:03:48;;;;;;;11.27;4.30;;;0.30;77.60;;;;;;4194300;28;20459;-80
2022/03/01 00:05:50;;;;;;;11.87;4.17;;;0.30;77.70;;;;;;4196655;28;20456;-80
2022/03/01 00:07:51;;;;;;;9.20;3.83;;;0.30;77.60;;;;;;4196878;28;21002;-80
2022/03/01 00:09:53;;;;;;;11.93;4.20;;;0.30;77.30;;;;;;4198722;28;20502;-80
2022/03/01 00:11:55;;;;;;;10.00;4.57;;;0.30;77.10;;;;;;4196381;28;20502;-80
2022/03/01 00:13:57;;;;;;;10.90;4.63;;;0.20;77.90;;;;;;4190091;28;20470;-80
2022/03/01 00:16:00;;;;;;;9.97;4.73;;;0.20;77.00;;;;;;4193768;28;20493;-80
2022/03/01 00:18:01;;;;;;;10.23;3.87;;;0.20;77.10;;;;;;4193868;28;20461;-80
2022/03/01 00:20:05;;;;;;;11.00;3.60;;;0.20;77.20;;;;;;4188878;28;20460;-80
2022/03/01 00:22:07;;;;;;;11.77;4.37;;;0.20;77.10;;;;;;4189573;28;20472;-79
2022/03/01 00:24:09;;;;;;;10.17;3.90;;;0.20;77.60;;;;;;4189965;28;20522;-79
2022/03/01 00:26:10;;;;;;;12.50;4.57;;;0.20;78.10;;;;;;4184182;28;20453;-80
2022/03/01 00:28:12;;;;;;;9.60;3.80;;;0.10;78.40;;;;;;4183382;28;20550;-79
2022/03/01 00:30:14;;;;;;;10.40;4.30;;;0.10;78.50;;;;;;4183354;28;20519;-79
2022/03/01 00:32:17;;;;;;;11.00;4.13;;;0.10;79.10;;;;;;4183458;28;20814;-78
2022/03/01 00:34:19;;;;;;;9.07;4.03;;;0.10;80.10;;;;;;4185438;28;20474;-79
2022/03/01 00:36:21;;;;;;;12.37;4.50;;;0.10;80.60;;;;;;4184655;28;20517;-80
2022/03/01 00:38:23;;;;;;;13.10;4.37;;;0.10;80.60;;;;;;4183473;28;20568;-79
2022/03/01 00:40:24;;;;;;;9.60;4.23;;;0.10;80.80;;;;;;4184261;28;20465;-78
2022/03/01 00:42:26;;;;;;;10.03;4.10;;;0.10;80.90;;;;;;4182891;28;20463;-78
2022/03/01 00:44:29;;;;;;;10.03;4.13;;;0.00;81.30;;;;;;4187599;28;20522;-78
2022/03/01 00:46:31;;;;;;;9.57;3.97;;;0.00;81.60;;;;;;4189503;28;20465;-77
2022/03/01 00:48:37;;;;;;;9.03;4.10;;;0.00;81.10;;;;;;4186006;28;20476;-77
2022/03/01 00:50:38;;;;;;;12.63;4.60;;;0.00;82.00;;;;;;4184122;28;20492;-79
2022/03/01 00:52:40;;;;;;;9.70;4.10;;;0.00;81.90;;;;;;4192347;28;20886;-77
2022/03/01 00:54:42;;;;;;;13.33;4.60;;;0.00;81.90;;;;;;4193995;28;20451;-78
2022/03/01 00:56:44;;;;;;;12.33;4.63;;;0.00;82.50;;;;;;4188669;28;20485;-78
2022/03/01 00:58:48;;;;;;;12.67;4.57;;;-0.10;84.30;;;;;;4192638;28;20476;-77
2022/03/01 01:00:49;;;;;;;9.67;4.10;;;-0.10;84.50;;;;;;4186335;28;20465;-77
2022/03/01 01:02:51;;;;;;;9.70;4.17;;;-0.10;85.70;;;;;;4186481;28;20511;-78
2022/03/01 01:04:54;;;;;;;12.10;4.93;;;-0.10;86.50;;;;;;4193835;28;20481;-77
2022/03/01 01:06:56;;;;;;;9.80;4.77;;;-0.10;87.10;;;;;;4191820;28;20468;-80
2022/03/01 01:08:58;;;;;;;12.03;5.20;;;0.00;88.10;;;;;;4186425;28;20484;-77
2022/03/01 01:11:00;;;;;;;9.93;4.17;;;-0.20;88.50;;;;;;4183436;28;20476;-77
2022/03/01 01:13:01;;;;;;;13.33;4.90;;;-0.20;89.20;;;;;;4193373;28;20523;-78
2022/03/01 01:15:05;;;;;;;12.27;4.97;;;-0.20;90.00;;;;;;4195183;28;20483;-77
2022/03/01 01:17:07;;;;;;;12.70;4.23;;;-0.20;90.20;;;;;;4183129;28;20484;-77
2022/03/01 01:19:09;;;;;;;13.73;4.83;;;-0.20;90.20;;;;;;4202943;23;20577;-79
2022/03/01 01:21:13;;;;;;;11.83;4.60;;;-0.30;90.60;;;;;;4192167;28;20880;-79
2022/03/01 01:23:14;;;;;;;10.47;4.57;;;-0.30;90.60;;;;;;4197900;28;20452;-79
2022/03/01 01:25:18;;;;;;;9.20;4.27;;;-0.30;90.50;;;;;;4203502;28;21005;-79
2022/03/01 01:27:20;;;;;;;10.23;4.73;;;-0.30;90.50;;;;;;4193079;28;20213;-79
2022/03/01 01:29:22;;;;;;;14.63;4.83;;;-0.30;90.80;;;;;;4190111;28;20997;-79
2022/03/01 01:31:23;;;;;;;12.10;4.13;;;-0.40;90.80;;;;;;4186714;28;20976;-78
2022/03/01 01:33:25;;;;;;;11.07;4.43;;;-0.40;90.90;;;;;;4197273;28;20437;-78
2022/03/01 01:35:29;;;;;;;11.00;4.30;;;-0.40;90.90;;;;;;4190523;28;20468;-78
2022/03/01 01:37:32;;;;;;;10.60;4.53;;;-0.40;91.10;;;;;;4194088;28;20496;-78
2022/03/01 01:39:34;;;;;;;9.80;4.57;;;-0.40;91.20;;;;;;4185371;28;20494;-78
2022/03/01 01:41:36;;;;;;;10.23;4.40;;;-0.40;91.20;;;;;;4197885;28;20456;-78
2022/03/01 01:43:37;;;;;;;9.73;4.23;;;-0.50;91.40;;;;;;4187252;28;20503;-78
2022/03/01 01:45:39;;;;;;;10.93;4.23;;;-0.50;91.60;;;;;;4179365;28;20520;-78
2022/03/01 01:47:41;;;;;;;11.37;4.37;;;-0.50;92.00;;;;;;4178767;28;20961;-78
2022/03/01 01:49:43;;;;;;;9.70;4.50;;;-0.50;92.30;;;;;;4189532;28;20480;-79
2022/03/01 01:51:45;;;;;;;14.70;5.10;;;-0.50;92.40;;;;;;4193909;28;20464;-79
2022/03/01 01:53:48;;;;;;;12.30;4.83;;;-0.50;93.00;;;;;;4194296;28;20456;-78
2022/03/01 01:55:50;;;;;;;11.80;5.20;;;-0.60;93.20;;;;;;4185868;28;20457;-78
2022/03/01 01:57:52;;;;;;;11.13;4.43;;;-0.60;93.20;;;;;;4195449;28;20463;-78
2022/03/01 01:59:56;;;;;;;11.13;4.63;;;-0.60;93.40;;;;;;4200394;28;20464;-78
2022/03/01 02:01:58;;;;;;;12.47;4.77;;;-0.60;93.30;;;;;;4199511;28;20432;-78
2022/03/01 02:04:00;;;;;;;13.43;4.63;;;-0.60;93.70;;;;;;4190581;28;20524;-78
2022/03/01 02:06:02;;;;;;;12.17;5.10;;;-0.60;94.20;;;;;;4191459;28;20456;-78
2022/03/01 02:08:04;;;;;;;12.20;4.90;;;-0.70;94.50;;;;;;4193743;28;20452;-78
2022/03/01 02:10:08;;;;;;;10.47;4.53;;;-0.70;94.80;;;;;;4191589;28;20472;-78
2022/03/01 02:12:11;;;;;;;11.20;4.83;;;-0.70;94.80;;;;;;4191021;28;20477;-78
2022/03/01 02:14:13;;;;;;;10.93;4.50;;;-0.70;95.30;;;;;;4190951;28;20497;-78
2022/03/01 02:16:15;;;;;;;12.30;4.97;;;-0.70;95.00;;;;;;4190530;28;20460;-78
2022/03/01 02:18:16;;;;;;;9.60;4.67;;;-0.70;95.10;;;;;;4184473;28;20972;-78
2022/03/01 02:20:21;;;;;;;11.57;5.23;;;-0.70;95.10;;;;;;4183565;28;20496;-78
2022/03/01 02:22:23;;;;;;;9.40;4.30;;;-0.70;95.10;;;;;;4183137;28;20526;-78
2022/03/01 02:24:28;;;;;;;11.37;4.47;;;-0.80;95.40;;;;;;4184511;28;20445;-78
2022/03/01 02:26:30;;;;;;;10.50;4.90;;;-0.80;95.40;;;;;;4187876;28;20499;-78
2022/03/01 02:28:31;;;;;;;9.43;4.57;;;-0.80;96.10;;;;;;4196696;28;20441;-78
2022/03/01 02:30:34;;;;;;;11.40;4.57;;;-0.80;95.80;;;;;;4182625;28;20460;-78
2022/03/01 02:32:36;;;;;;;11.97;4.77;;;-0.80;96.20;;;;;;4188576;28;20459;-79
2022/03/01 02:34:38;;;;;;;12.47;4.93;;;-0.80;96.60;;;;;;4194277;28;20827;-79
2022/03/01 02:36:41;;;;;;;12.77;5.23;;;-0.90;97.00;;;;;;4194515;28;20560;-78
2022/03/01 02:38:42;;;;;;;10.67;4.63;;;-0.80;97.30;;;;;;4199138;28;20483;-80
2022/03/01 02:40:44;;;;;;;10.60;4.57;;;-0.90;97.50;;;;;;4196700;28;22253;-78
2022/03/01 02:42:48;;;;;;;10.00;4.83;;;-0.90;97.70;;;;;;4190369;28;20473;-79
2022/03/01 02:44:50;;;;;;;10.40;4.43;;;-0.90;97.80;;;;;;4192096;28;20475;-79
2022/03/01 02:46:52;;;;;;;11.60;5.30;;;-0.90;98.00;;;;;;4186787;28;20554;-79
2022/03/01 02:48:53;;;;;;;13.97;5.43;;;-0.90;98.30;;;;;;4195764;28;20480;-79
2022/03/01 02:50:55;;;;;;;13.67;5.30;;;-0.90;98.50;;;;;;4194174;28;20460;-79
2022/03/01 02:52:58;;;;;;;12.27;4.90;;;-1.00;99.10;;;;;;4198830;28;20452;-79
2022/03/01 02:55:00;;;;;;;13.13;5.13;;;-1.00;99.20;;;;;;4194494;28;20490;-79
2022/03/01 02:57:03;;;;;;;11.17;5.17;;;-1.00;99.30;;;;;;4199241;28;20492;-79
2022/03/01 02:59:05;;;;;;;10.87;4.97;;;-1.00;99.40;;;;;;4197383;28;20565;-79
2022/03/01 03:01:07;;;;;;;11.17;4.67;;;-1.00;99.70;;;;;;4183902;28;21035;-79
2022/03/01 03:03:09;;;;;;;12.70;5.60;;;-1.00;99.90;;;;;;4202767;28;20838;-79
2022/03/01 03:05:11;;;;;;;12.10;5.13;;;-1.00;99.90;;;;;;4199422;28;20523;-79
2022/03/01 03:07:13;;;;;;;12.83;4.80;;;-1.00;99.90;;;;;;4199305;28;20456;-79
2022/03/01 03:09:17;;;;;;;14.47;5.50;;;-1.10;99.90;;;;;;4185673;28;20483;-79
2022/03/01 03:11:19;;;;;;;11.60;4.83;;;-1.10;99.90;;;;;;4186708;28;20495;-79
2022/03/01 03:13:21;;;;;;;10.50;5.33;;;-1.10;99.90;;;;;;4195677;28;20449;-79
2022/03/01 03:15:23;;;;;;;12.70;5.30;;;-1.10;99.90;;;;;;4187000;28;20492;-79
2022/03/01 03:17:25;;;;;;;12.90;4.50;;;-1.10;99.90;;;;;;4194287;28;20492;-79
2022/03/01 03:19:26;;;;;;;10.60;5.10;;;-1.10;99.90;;;;;;4199561;28;20555;-79
2022/03/01 03:21:28;;;;;;;9.97;4.80;;;-1.10;99.90;;;;;;4197425;28;20452;-79
2022/03/01 03:23:30;;;;;;;12.63;4.83;;;-1.10;99.90;;;;;;4214007;28;20459;-79
2022/03/01 03:25:33;;;;;;;11.57;5.37;;;-1.10;99.90;;;;;;4200801;28;20471;-79
2022/03/01 03:27:35;;;;;;;14.40;5.33;;;-1.20;99.90;;;;;;4191175;28;20514;-79
2022/03/01 03:29:37;;;;;;;10.87;4.77;;;-1.20;99.90;;;;;;4194277;28;20484;-79
2022/03/01 03:31:40;;;;;;;10.93;4.40;;;-1.20;99.90;;;;;;4202208;28;20545;-79
2022/03/01 03:33:42;;;;;;;12.67;4.83;;;-1.20;99.90;;;;;;4186264;28;20499;-79
2022/03/01 03:35:44;;;;;;;11.77;4.90;;;-1.20;99.90;;;;;;4186424;28;20966;-79
2022/03/01 03:37:46;;;;;;;12.13;4.93;;;-1.20;99.90;;;;;;4185759;28;20487;-79
2022/03/01 03:39:48;;;;;;;11.90;5.07;;;-1.20;99.90;;;;;;4185587;28;20310;-79
2022/03/01 03:41:51;;;;;;;14.33;5.33;;;-1.20;99.90;;;;;;4185328;28;20492;-79
2022/03/01 03:43:52;;;;;;;11.03;5.20;;;-1.20;99.90;;;;;;4193526;28;20523;-79
2022/03/01 03:45:54;;;;;;;11.27;4.77;;;-1.30;99.90;;;;;;4192439;28;20953;-79
2022/03/01 03:47:56;;;;;;;10.50;5.03;;;-1.30;99.90;;;;;;4202487;28;20456;-79
2022/03/01 03:49:57;;;;;;;11.20;4.57;;;-1.30;99.90;;;;;;4200638;28;20539;-78
2022/03/01 03:52:00;;;;;;;11.23;5.03;;;-1.30;99.90;;;;;;4193783;28;20515;-79
2022/03/01 03:54:02;;;;;;;13.10;5.63;;;-1.30;99.90;;;;;;4204377;28;20521;-79
2022/03/01 03:56:04;;;;;;;11.20;5.47;;;-1.30;99.90;;;;;;4203469;28;20459;-79
2022/03/01 03:58:07;;;;;;;12.97;5.30;;;-1.30;99.90;;;;;;4201338;28;20498;-79
2022/03/01 04:00:15;;;;;;;12.30;5.40;;;-1.30;99.90;;;;;;4197767;28;20496;-79
2022/03/01 04:02:17;;;;;;;13.27;5.07;;;-1.30;99.90;;;;;;4186426;28;20538;-79
2022/03/01 04:04:18;;;;;;;12.07;5.50;;;-1.40;99.90;;;;;;4194161;28;20911;-79
2022/03/01 04:06:20;;;;;;;14.00;5.20;;;-1.40;99.90;;;;;;4198351;28;20454;-79
2022/03/01 04:08:22;;;;;;;11.63;5.43;;;-1.40;99.90;;;;;;4194274;28;20532;-79
2022/03/01 04:10:24;;;;;;;12.40;5.23;;;-1.40;99.90;;;;;;4199839;28;20791;-79
2022/03/01 04:12:29;;;;;;;14.73;5.00;;;-1.40;99.90;;;;;;4185177;28;20507;-79
2022/03/01 04:14:32;;;;;;;12.27;5.00;;;-1.40;99.90;;;;;;4186144;28;20495;-79
2022/03/01 04:16:34;;;;;;;9.23;4.90;;;-1.40;99.90;;;;;;4199276;28;20456;-79
2022/03/01 04:18:35;;;;;;;10.13;4.28;;;-1.40;99.90;;;;;;4195283;28;20492;-79
2022/03/01 04:20:37;;;;;;;10.50;4.63;;;-1.40;99.90;;;;;;4195289;28;20759;-79
2022/03/01 04:22:40;;;;;;;10.27;4.55;;;-1.30;99.90;;;;;;4190816;28;20465;-79
2022/03/01 04:24:42;;;;;;;11.27;5.13;;;-1.50;99.90;;;;;;4195914;28;20233;-79
2022/03/01 04:26:44;;;;;;;13.17;5.10;;;-1.50;99.90;;;;;;4192113;28;20461;-79
2022/03/01 04:28:46;;;;;;;13.37;5.03;;;-1.50;99.90;;;;;;4196593;28;20476;-79
2022/03/01 04:30:49;;;;;;;10.93;4.57;;;-1.50;99.90;;;;;;4194516;28;20465;-79
2022/03/01 04:32:51;;;;;;;11.82;5.13;;;-1.50;99.90;;;;;;4194654;28;20477;-80
2022/03/01 04:34:53;;;;;;;9.43;4.27;;;-1.50;99.90;;;;;;4196644;28;20284;-80
2022/03/01 04:36:55;;;;;;;13.23;4.90;;;-1.50;99.90;;;;;;4185406;28;20473;-80
2022/03/01 04:38:56;;;;;;;10.03;4.53;;;-1.50;99.90;;;;;;4192541;28;20469;-79
2022/03/01 04:40:58;;;;;;;12.95;5.25;;;-1.60;99.90;;;;;;4197194;28;20999;-79
2022/03/01 04:43:00;;;;;;;9.77;5.27;;;-1.50;99.90;;;;;;4199885;28;20211;-79
2022/03/01 04:45:02;;;;;;;14.40;5.40;;;-1.50;99.90;;;;;;4199915;28;20459;-79
2022/03/01 04:47:06;;;;;;;10.53;4.50;;;-1.20;99.90;;;;;;4195746;28;20461;-79
2022/03/01 04:49:08;;;;;;;11.40;4.90;;;-1.60;99.90;;;;;;4185061;28;20476;-79
2022/03/01 04:51:10;;;;;;;11.90;4.60;;;-1.60;99.90;;;;;;4195172;28;20499;-79
2022/03/01 04:53:12;;;;;;;10.93;4.87;;;-1.60;99.90;;;;;;4199231;28;20460;-79
2022/03/01 04:55:15;;;;;;;11.70;5.00;;;-1.60;99.90;;;;;;4196781;28;20468;-79
2022/03/01 04:57:17;;;;;;;14.60;4.83;;;-1.60;99.90;;;;;;4195126;28;20499;-79
2022/03/01 04:59:19;;;;;;;12.93;4.85;;;-1.60;99.90;;;;;;4193512;28;20541;-79
2022/03/01 05:01:21;;;;;;;13.40;4.80;;;-1.60;99.90;;;;;;4187319;28;20217;-79
2022/03/01 05:03:24;;;;;;;8.93;4.30;;;-1.60;99.90;;;;;;4189782;28;20673;-79
2022/03/01 05:05:26;;;;;;;12.60;5.10;;;-1.60;99.90;;;;;;4191239;28;20453;-79
2022/03/01 05:07:28;;;;;;;12.90;4.77;;;-1.60;99.90;;;;;;4194722;28;20472;-78
2022/03/01 05:09:30;;;;;;;11.90;5.23;;;-1.70;99.90;;;;;;4193390;28;20480;-79
2022/03/01 05:11:31;;;;;;;10.73;4.83;;;-1.70;99.90;;;;;;4197238;28;20463;-79
2022/03/01 05:13:33;;;;;;;11.27;4.80;;;-1.70;99.90;;;;;;4202274;28;21024;-79
2022/03/01 05:15:35;;;;;;;11.43;5.10;;;-1.70;99.90;;;;;;4196636;28;20860;-79
2022/03/01 05:17:37;;;;;;;12.20;4.72;;;-1.70;99.90;;;;;;4191137;28;20248;-79
2022/03/01 05:19:40;;;;;;;10.55;5.05;;;-1.70;99.90;;;;;;4188614;28;20237;-78
2022/03/01 05:21:43;;;;;;;12.00;5.15;;;-1.70;99.90;;;;;;4194943;28;20214;-79
2022/03/01 05:23:45;;;;;;;12.30;5.18;;;-1.70;99.90;;;;;;4195682;28;20217;-79
2022/03/01 05:25:48;;;;;;;11.05;4.53;;;-1.70;99.90;;;;;;4186770;28;20514;-79
2022/03/01 05:27:52;;;;;;;12.30;4.78;;;-1.70;99.90;;;;;;4187544;28;20216;-79
2022/03/01 05:29:53;;;;;;;13.50;4.82;;;-1.70;99.90;;;;;;4201899;28;20225;-79
2022/03/01 05:31:55;;;;;;;12.88;4.90;;;-1.80;99.90;;;;;;4182103;28;20206;-79
2022/03/01 05:33:57;;;;;;;12.35;5.10;;;-1.80;99.90;;;;;;4184219;28;20555;-78
2022/03/01 05:36:00;;;;;;;12.98;5.32;;;-1.80;99.90;;;;;;4192197;28;20600;-79
2022/03/01 05:38:02;;;;;;;10.93;4.63;;;-1.80;99.90;;;;;;4199243;28;20225;-79
2022/03/01 05:40:05;;;;;;;11.65;5.13;;;-1.80;99.90;;;;;;4184382;28;20257;-79
2022/03/01 05:42:09;;;;;;;10.80;4.72;;;-1.80;99.90;;;;;;4194462;28;20727;-79
2022/03/01 05:44:11;;;;;;;12.98;4.80;;;-1.80;99.90;;;;;;4211412;28;20201;-79
2022/03/01 05:46:12;;;;;;;12.13;5.30;;;-1.80;99.90;;;;;;4185797;28;20671;-79
2022/03/01 05:48:14;;;;;;;10.63;4.53;;;-1.80;99.90;;;;;;4199339;28;20452;-80
2022/03/01 05:50:17;;;;;;;14.53;5.20;;;-1.80;99.90;;;;;;4190730;28;20291;-79
2022/03/01 05:52:20;;;;;;;12.80;4.82;;;-1.80;99.90;;;;;;4190922;28;20666;-80
2022/03/01 05:54:22;;;;;;;9.82;4.63;;;-1.90;99.90;;;;;;4192371;28;20214;-79
2022/03/01 05:56:24;;;;;;;11.85;4.95;;;-1.90;99.90;;;;;;4189903;28;20630;-79
2022/03/01 05:58:26;;;;;;;9.20;4.60;;;-1.40;99.90;;;;;;4190157;28;20236;-79
2022/03/01 06:00:28;;;;;;;11.05;4.45;;;-1.90;99.90;;;;;;4187112;28;20210;-79
2022/03/01 06:02:29;;;;;;;9.73;4.88;;;-1.90;99.90;;;;;;4182753;28;20222;-79
2022/03/01 06:04:31;;;;;;;10.98;4.82;;;-1.90;99.90;;;;;;4183651;28;20203;-79
2022/03/01 06:06:33;;;;;;;11.55;4.55;;;-1.90;99.90;;;;;;4191914;28;20260;-79
2022/03/01 06:08:36;;;;;;;10.77;4.90;;;-1.90;99.90;;;;;;4186642;28;20733;-80
2022/03/01 06:10:38;;;;;;;12.43;4.63;;;-1.90;99.90;;;;;;4184675;28;20216;-79
2022/03/01 06:12:40;;;;;;;11.23;4.75;;;-1.90;99.90;;;;;;4187062;28;20261;-80
2022/03/01 06:14:41;;;;;;;13.17;6.00;;;-1.90;99.90;;;;;;4183415;28;20217;-80
2022/03/01 06:16:44;;;;;;;16.23;5.90;;;-1.90;99.90;;;;;;4184827;28;20519;-79
2022/03/01 06:18:46;;;;;;;10.98;5.00;;;-1.90;99.90;;;;;;4184100;28;20544;-79
2022/03/01 06:20:48;;;;;;;9.32;4.63;;;-1.80;99.90;;;;;;4188065;28;20221;-79
2022/03/01 06:22:49;;;;;;;9.40;4.63;;;-1.90;99.90;;;;;;4186980;28;20210;-79
2022/03/01 06:24:54;;;;;;;9.00;4.38;;;-1.90;99.90;;;;;;4189316;28;20465;-79
2022/03/01 06:26:56;;;;;;;11.05;4.75;;;-1.90;99.90;;;;;;4185045;28;20218;-79
2022/03/01 06:28:58;;;;;;;12.18;4.63;;;-1.80;99.90;;;;;;4191730;28;20267;-79
2022/03/01 06:31:00;;;;;;;11.25;4.78;;;-1.80;99.90;;;;;;4196133;28;20220;-79
2022/03/01 06:33:02;;;;;;;11.23;4.43;;;-1.80;99.90;;;;;;4182943;28;20206;-79
2022/03/01 06:35:05;;;;;;;9.38;4.50;;;-1.80;99.90;;;;;;4188073;28;20542;-79
2022/03/01 06:37:12;;;;;;;9.30;4.17;;;-1.80;99.90;;;;;;4198498;28;20297;-79
2022/03/01 06:39:14;;;;;;;11.10;4.50;;;-1.60;99.90;;;;;;4197582;28;20983;-79
2022/03/01 06:41:17;;;;;;;9.70;4.80;;;-1.80;99.90;;;;;;4186797;28;20218;-79
2022/03/01 06:43:19;;;;;;;14.50;4.72;;;-1.70;99.90;;;;;;4183095;28;20461;-79
2022/03/01 06:45:21;;;;;;;11.57;4.40;;;-1.70;99.90;;;;;;4185537;28;20216;-79
2022/03/01 06:47:22;;;;;;;10.77;4.67;;;-1.70;99.90;;;;;;4189677;28;20457;-79
2022/03/01 06:49:24;;;;;;;10.48;4.95;;;-1.70;99.90;;;;;;4199298;28;20875;-79
2022/03/01 06:51:26;;;;;;;10.50;4.60;;;-1.70;99.90;;;;;;4193092;28;20241;-79
2022/03/01 06:53:28;;;;;;;11.00;4.60;;;-1.70;99.90;;;;;;4191705;28;20547;-79
2022/03/01 06:55:30;;;;;;;13.07;4.97;;;-1.70;99.90;;;;;;4181151;28;20485;-79
2022/03/01 06:57:34;;;;;;;9.87;4.83;;;-1.90;99.90;;;;;;4182229;28;20211;-79
2022/03/01 06:59:36;;;;;;;10.77;4.88;;;-1.60;99.90;;;;;;4184725;28;20493;-79
2022/03/01 07:01:38;;;;;;;9.77;4.50;;;-1.60;99.90;;;;;;4193945;28;20647;-79
2022/03/01 07:03:42;;;;;;;11.10;4.70;;;-1.60;99.90;;;;;;4197725;28;20222;-79
2022/03/01 07:05:44;;;;;;;10.50;4.60;;;-1.60;99.90;;;;;;4189550;28;20225;-81
2022/03/01 07:07:46;;;;;;;10.97;5.27;;;-1.40;99.90;;;;;;4189810;28;20261;-79
2022/03/01 07:09:48;;;;;;;13.13;4.77;;;-1.00;99.90;;;;;;4187948;28;20479;-80
2022/03/01 07:11:50;;;;;;;11.67;5.40;;;-1.50;99.90;;;;;;4189376;28;20960;-80
2022/03/01 07:13:53;;;;;;;13.70;5.33;;;-1.50;99.90;;;;;;4191689;28;20456;-80
2022/03/01 07:15:55;;;;;;;12.73;5.33;;;-1.50;99.90;;;;;;4188685;28;20522;-81
2022/03/01 07:17:56;;;;;;;8.63;4.63;;;-1.50;99.90;;;;;;4186969;28;20461;-81
2022/03/01 07:19:58;;;;;;;9.60;4.90;;;-1.50;99.90;;;;;;4204475;23;20514;-76
2022/03/01 07:22:00;;;;;;;14.63;4.80;;;-1.50;99.90;;;;;;4148114;28;20512;-76
2022/03/01 07:24:02;;;;;;;11.87;4.80;;;-1.50;99.90;;;;;;4150082;28;21086;-75
2022/03/01 07:26:04;;;;;;;11.60;5.27;;;-1.50;99.90;;;;;;4145125;28;20473;-77
2022/03/01 07:28:06;;;;;;;13.43;5.00;;;-1.50;99.90;;;;;;4147362;28;20470;-75
2022/03/01 07:30:10;;;;;;;15.67;5.53;;;-1.40;99.90;;;;;;4147559;28;20500;-75
2022/03/01 07:32:12;;;;;;;11.83;4.97;;;-1.40;99.90;;;;;;4150940;28;20469;-76
2022/03/01 07:34:14;;;;;;;11.97;5.20;;;-1.40;99.90;;;;;;4146556;28;20832;-77
2022/03/01 07:36:16;;;;;;;11.93;4.80;;;-1.40;99.90;;;;;;4147908;28;20849;-75
2022/03/01 07:38:18;;;;;;;13.33;4.97;;;-1.30;99.90;;;;;;4142018;28;20483;-76
2022/03/01 07:40:21;;;;;;;10.73;5.00;;;-1.30;99.90;;;;;;4142360;28;20905;-77
2022/03/01 07:42:23;;;;;;;12.23;4.97;;;-1.20;99.90;;;;;;4152028;28;20451;-76
2022/03/01 07:44:25;;;;;;;10.70;5.03;;;-1.20;99.90;;;;;;4145052;28;20875;-77
2022/03/01 07:46:28;;;;;;;12.47;5.73;;;-1.20;99.90;;;;;;4143298;28;20460;-76
2022/03/01 07:48:30;;;;;;;13.27;5.60;;;-1.20;99.90;;;;;;4144349;28;20478;-76
2022/03/01 07:50:34;;;;;;;9.60;4.37;;;-1.10;99.90;;;;;;4147751;28;20493;-76
2022/03/01 07:52:36;;;;;;;11.27;5.17;;;-1.10;99.90;;;;;;4143305;28;20490;-76
2022/03/01 07:54:38;;;;;;;13.97;5.63;;;-1.00;99.90;;;;;;4146667;28;20451;-76
2022/03/01 07:56:40;;;;;;;14.83;6.00;;;-1.00;99.90;;;;;;4166637;28;20519;-78
2022/03/01 07:58:43;;;;;;;11.77;5.93;;;-0.90;99.90;;;;;;4162665;28;20579;-76
2022/03/01 08:00:44;;;;;;;14.67;5.80;;;-0.90;99.90;;;;;;4164285;28;20456;-75
2022/03/01 08:02:47;;;;;;;10.90;5.07;;;-0.80;99.90;;;;;;4166211;28;20476;-77
2022/03/01 08:04:49;;;;;;;9.60;5.00;;;-0.80;99.90;;;;;;4163758;28;20465;-77
2022/03/01 08:06:51;;;;;;;10.80;4.30;;;-0.80;99.90;;;;;;4164627;28;20470;-76
2022/03/01 08:08:53;;;;;;;11.87;4.60;;;-0.80;99.90;;;;;;4168160;28;20926;-77
2022/03/01 08:10:54;;;;;;;8.77;4.53;;;-0.70;99.70;;;;;;4168405;28;20867;-75
2022/03/01 08:12:57;;;;;;;12.43;5.33;;;-0.70;98.60;;;;;;4168192;28;20469;-77
2022/03/01 08:14:58;;;;;;;9.23;5.10;;;-0.70;97.50;;;;;;4166886;28;20474;-80
2022/03/01 08:17:03;;;;;;;10.23;5.13;;;-0.60;96.20;;;;;;4165024;28;20955;-78
2022/03/01 08:19:06;;;;;;;10.23;4.57;;;-0.60;95.60;;;;;;4168838;28;20497;-78
2022/03/01 08:21:09;;;;;;;11.73;5.17;;;-0.50;95.20;;;;;;4163372;28;20474;-79
2022/03/01 08:23:10;;;;;;;9.23;4.50;;;-0.60;94.50;;;;;;4168769;28;20504;-76
2022/03/01 08:25:13;;;;;;;10.67;4.30;;;-0.40;93.80;;;;;;4165967;28;20452;-79
2022/03/01 08:27:16;;;;;;;8.67;4.20;;;-0.40;93.00;;;;;;4160319;28;20520;-80
2022/03/01 08:29:20;;;;;;;8.83;4.30;;;-0.40;92.60;;;;;;4167585;28;20552;-78
2022/03/01 08:31:24;;;;;;;8.77;4.07;;;-0.30;91.80;;;;;;4159330;28;20468;-78
2022/03/01 08:33:26;;;;;;;11.20;4.50;;;0.20;91.60;;;;;;4165118;28;21521;-77
2022/03/01 08:35:30;;;;;;;11.23;4.53;;;-0.30;90.50;;;;;;4160515;28;21040;-78
2022/03/01 08:37:31;;;;;;;8.53;4.40;;;-0.20;89.70;;;;;;4165296;28;20463;-78
2022/03/01 08:39:36;;;;;;;10.27;4.43;;;-0.10;84.50;;;;;;4167725;28;20494;-80
2022/03/01 08:41:37;;;;;;;10.13;4.43;;;-0.10;82.00;;;;;;4164687;28;20464;-76
2022/03/01 08:43:39;;;;;;;10.97;4.70;;;0.00;81.20;;;;;;4161767;28;20521;-80
2022/03/01 08:45:42;;;;;;;11.83;4.63;;;0.10;78.10;;;;;;4166454;28;20524;-80
2022/03/01 08:47:43;;;;;;;10.77;4.27;;;0.10;75.70;;;;;;4165048;28;20526;-77
2022/03/01 08:49:45;;;;;;;11.83;4.40;;;0.20;71.60;;;;;;4168149;28;20733;-79
2022/03/01 08:51:48;;;;;;;8.33;4.20;;;0.30;68.50;;;;;;4167916;28;21011;-79
2022/03/01 08:53:50;;;;;;;12.23;4.80;;;0.30;67.30;;;;;;4164042;28;20470;-78
2022/03/01 08:55:53;;;;;;;10.03;3.83;;;0.40;66.70;;;;;;4165219;28;20462;-80
2022/03/01 08:57:55;;;;;;;7.83;3.97;;;0.40;66.50;;;;;;4168819;28;20465;-80
2022/03/01 08:59:57;;;;;;;10.63;5.03;;;0.50;66.50;;;;;;4163151;28;21014;-81
2022/03/01 09:01:59;;;;;;;13.07;5.50;;;0.50;66.60;;;;;;4159796;28;20469;-79
2022/03/01 09:04:01;;;;;;;11.00;4.43;;;0.60;66.60;;;;;;4161527;28;20464;-78
2022/03/01 09:06:05;;;;;;;10.20;4.50;;;0.60;66.20;;;;;;4158477;28;20482;-78
2022/03/01 09:08:09;;;;;;;12.50;4.43;;;0.60;65.00;;;;;;4163720;28;20479;-78
2022/03/01 09:10:11;;;;;;;10.53;4.30;;;0.70;64.60;;;;;;4160449;28;21008;-79
2022/03/01 09:12:13;;;;;;;9.20;4.43;;;0.80;64.20;;;;;;4165125;28;21557;-80
2022/03/01 09:14:15;;;;;;;11.70;4.43;;;0.80;63.80;;;;;;4157966;28;20522;-80
2022/03/01 09:16:17;;;;;;;8.83;4.17;;;0.90;63.10;;;;;;4161307;28;20468;-78
2022/03/01 09:18:18;;;;;;;12.77;4.53;;;0.90;62.60;;;;;;4165426;28;20528;-80
2022/03/01 09:20:20;;;;;;;9.60;4.37;;;0.90;62.40;;;;;;4162258;28;20688;-78
2022/03/01 09:22:22;;;;;;;10.10;4.53;;;1.00;62.20;;;;;;4163974;28;20984;-80
2022/03/01 09:24:25;;;;;;;9.13;4.00;;;1.00;61.70;;;;;;4163282;28;21016;-80
2022/03/01 09:26:27;;;;;;;9.20;4.30;;;1.10;61.70;;;;;;4161589;28;20820;-80
2022/03/01 09:28:29;;;;;;;9.43;3.67;;;1.10;60.60;;;;;;4163555;28;20457;-80
2022/03/01 09:30:31;;;;;;;9.07;3.80;;;1.20;59.60;;;;;;4166651;28;20541;-79
2022/03/01 09:32:33;;;;;;;12.43;4.20;;;1.20;59.40;;;;;;4163080;28;20475;-78
2022/03/01 09:34:39;;;;;;;9.90;4.00;;;1.30;59.30;;;;;;4162819;28;20487;-78
2022/03/01 09:36:41;;;;;;;8.00;3.80;;;1.30;59.00;;;;;;4168336;28;21045;-81
2022/03/01 09:38:43;;;;;;;6.90;3.37;;;1.50;58.80;;;;;;4165624;28;20625;-79
2022/03/01 09:40:49;;;;;;;7.63;3.57;;;1.30;59.10;;;;;;4164973;28;20515;-81
2022/03/01 09:42:52;;;;;;;9.90;3.73;;;1.40;59.80;;;;;;4170514;28;20440;-79
2022/03/01 09:44:55;;;;;;;7.87;3.70;;;1.50;59.40;;;;;;4164244;28;20471;-80
2022/03/01 09:46:57;;;;;;;8.70;4.10;;;1.50;58.60;;;;;;4168988;28;20440;-78
2022/03/01 09:48:59;;;;;;;9.43;4.53;;;1.60;58.30;;;;;;4169787;28;20987;-82
2022/03/01 09:51:02;;;;;;;8.83;4.07;;;1.60;57.20;;;;;;4160534;28;20461;-79
2022/03/01 09:53:04;;;;;;;8.43;4.40;;;1.70;57.00;;;;;;4153560;28;20501;-79
2022/03/01 09:55:08;;;;;;;8.43;4.27;;;1.80;56.20;;;;;;4162652;28;20968;-81
2022/03/01 09:57:15;;;;;;;10.10;4.20;;;1.90;55.90;;;;;;4161630;28;20522;-81
2022/03/01 09:59:17;;;;;;;14.10;5.33;;;2.00;55.50;;;;;;4164404;28;20496;-79
2022/03/01 10:01:19;;;;;;;10.10;4.10;;;2.00;54.80;;;;;;4164131;28;20880;-79
2022/03/01 10:03:21;;;;;;;9.20;4.37;;;2.00;54.60;;;;;;4165950;28;20460;-78
2022/03/01 10:05:34;;;;;;;9.90;4.33;;;2.10;54.30;;;;;;4168779;28;20481;-81
2022/03/01 10:07:38;;;;;;;9.97;4.30;;;2.10;53.90;;;;;;4169636;28;20468;-81
2022/03/01 10:09:41;;;;;;;8.43;4.20;;;2.20;53.80;;;;;;4176704;28;20547;-82
2022/03/01 10:11:44;;;;;;;11.27;4.53;;;2.30;53.80;;;;;;4168805;28;20468;-80
2022/03/01 10:13:47;;;;;;;9.77;3.93;;;2.30;53.20;;;;;;4167870;28;20461;-79
2022/03/01 10:15:51;;;;;;;9.07;4.17;;;2.20;53.20;;;;;;4169703;28;20874;-78
2022/03/01 10:17:53;;;;;;;7.47;4.20;;;2.40;53.30;;;;;;4164545;28;20475;-80
2022/03/01 10:20:01;;;;;;;8.97;4.33;;;2.50;54.00;;;;;;4161194;28;20496;-80
2022/03/01 10:22:05;;;;;;;8.57;4.10;;;2.50;54.00;;;;;;4165859;28;20475;-79
2022/03/01 10:24:08;;;;;;;8.73;3.50;;;2.50;53.90;;;;;;4163511;28;20468;-80
2022/03/01 10:26:14;;;;;;;11.73;4.43;;;2.50;53.90;;;;;;4159646;28;20526;-81
2022/03/01 10:28:16;;;;;;;7.90;3.40;;;2.70;53.90;;;;;;4165373;28;20527;-79
2022/03/01 10:30:25;;;;;;;9.23;4.10;;;2.60;53.30;;;;;;4164349;28;20481;-80
2022/03/01 10:32:27;;;;;;;9.07;4.77;;;2.70;52.50;;;;;;4161619;28;20478;-80
2022/03/01 10:34:29;;;;;;;8.60;4.30;;;2.70;52.60;;;;;;4165933;28;20687;-79